createdAt,value
2023-05-19T00:00:37.900Z,16.68
2023-05-19T00:03:09.286Z,16.83
2023-05-19T00:05:41.225Z,16.83
2023-05-19T00:08:12.189Z,16.74
2023-05-19T00:10:41.364Z,16.88
2023-05-19T00:13:10.245Z,17.02
2023-05-19T00:15:41.200Z,16.76
2023-05-19T00:18:10.164Z,16.67
2023-05-19T00:20:39.022Z,16.73
2023-05-19T00:23:07.693Z,16.84
2023-05-19T00:25:36.294Z,16.96
2023-05-19T00:28:05.205Z,16.63
2023-05-19T00:30:33.736Z,16.65
2023-05-19T00:33:03.915Z,16.46
2023-05-19T00:35:32.558Z,16.13
2023-05-19T00:38:01.266Z,15.88
2023-05-19T00:40:32.148Z,15.87
2023-05-19T00:43:01.480Z,15.58
2023-05-19T00:45:31.090Z,15.66
2023-05-19T00:47:59.729Z,15.66
2023-05-19T00:50:30.561Z,15.34
2023-05-19T00:53:00.378Z,15.00
2023-05-19T00:55:32.253Z,15.02
2023-05-19T00:58:01.472Z,14.94
2023-05-19T01:00:32.806Z,15.14
2023-05-19T01:03:03.162Z,15.35
2023-05-19T01:05:33.227Z,15.19
2023-05-19T01:08:05.306Z,15.46
2023-05-19T01:10:34.144Z,15.36
2023-05-19T01:13:06.197Z,15.14
2023-05-19T01:15:40.958Z,15.09
2023-05-19T01:18:15.617Z,14.71
2023-05-19T01:20:55.322Z,15.13
2023-05-19T01:23:38.192Z,15.04
2023-05-19T01:26:26.115Z,14.77
2023-05-19T01:29:28.398Z,15.21
2023-05-19T01:32:01.349Z,15.18
2023-05-19T01:34:32.245Z,15.06
2023-05-19T01:37:02.864Z,14.77
2023-05-19T01:39:31.710Z,15.08
2023-05-19T01:42:02.897Z,14.70
2023-05-19T01:44:32.954Z,14.71
2023-05-19T01:47:03.874Z,14.83
2023-05-19T01:49:32.519Z,14.90
2023-05-19T01:52:01.005Z,14.64
2023-05-19T01:54:29.654Z,14.46
2023-05-19T01:57:11.017Z,14.22
2023-05-19T01:59:53.409Z,14.28
2023-05-19T02:02:36.496Z,14.44
2023-05-19T02:05:14.162Z,13.98
2023-05-19T02:07:46.806Z,13.83
2023-05-19T02:10:20.797Z,13.74
2023-05-19T02:12:54.178Z,13.90
2023-05-19T02:15:26.140Z,14.02
2023-05-19T02:17:57.359Z,13.72
2023-05-19T02:20:45.919Z,13.34
2023-05-19T02:23:14.368Z,13.49
2023-05-19T02:25:42.941Z,13.35
2023-05-19T02:28:11.628Z,13.37
2023-05-19T02:30:40.130Z,13.11
2023-05-19T02:33:12.901Z,13.15
2023-05-19T02:35:41.544Z,12.52
2023-05-19T02:38:10.200Z,12.81
2023-05-19T02:40:43.715Z,12.35
2023-05-19T02:43:12.697Z,11.82
2023-05-19T02:45:42.173Z,12.10
2023-05-19T02:48:14.872Z,12.08
2023-05-19T02:50:43.584Z,11.80
2023-05-19T02:53:12.139Z,11.50
2023-05-19T02:55:40.911Z,11.80
2023-05-19T02:58:09.481Z,11.93
2023-05-19T03:00:38.104Z,11.81
2023-05-19T03:03:06.811Z,11.76
2023-05-19T03:05:36.990Z,11.63
2023-05-19T03:08:06.324Z,11.79
2023-05-19T03:10:34.958Z,11.71
2023-05-19T03:13:03.779Z,11.66
2023-05-19T03:15:32.585Z,11.55
2023-05-19T03:18:01.413Z,11.68
2023-05-19T03:20:30.920Z,11.46
2023-05-19T03:23:01.557Z,11.48
2023-05-19T03:25:30.812Z,11.66
2023-05-19T03:27:59.100Z,11.66
2023-05-19T03:30:27.647Z,11.69
2023-05-19T03:33:19.065Z,11.80
2023-05-19T03:35:47.941Z,11.73
2023-05-19T03:38:18.936Z,11.54
2023-05-19T03:40:56.318Z,11.43
2023-05-19T03:43:24.948Z,11.65
2023-05-19T03:46:03.910Z,11.67
2023-05-19T03:49:05.966Z,11.91
2023-05-19T03:52:03.512Z,12.24
2023-05-19T03:54:39.897Z,12.15
2023-05-19T03:57:08.777Z,11.81
2023-05-19T03:59:37.358Z,12.06
2023-05-19T04:02:08.219Z,12.33
2023-05-19T04:04:40.977Z,12.31
2023-05-19T04:07:09.724Z,12.47
2023-05-19T04:09:39.830Z,12.18
2023-05-19T04:12:09.168Z,12.40
2023-05-19T04:14:37.869Z,12.39
2023-05-19T04:17:06.776Z,12.57
2023-05-19T04:19:35.145Z,12.34
2023-05-19T04:22:04.973Z,12.20
2023-05-19T04:24:33.934Z,11.88
2023-05-19T04:27:07.349Z,11.70
2023-05-19T04:29:36.129Z,11.94
2023-05-19T04:32:08.167Z,11.94
2023-05-19T04:34:40.410Z,11.89
2023-05-19T04:37:10.855Z,11.88
2023-05-19T04:39:43.200Z,11.93
2023-05-19T04:42:19.645Z,12.08
2023-05-19T04:44:51.982Z,11.57
2023-05-19T04:47:22.457Z,11.65
2023-05-19T04:49:55.618Z,11.52
2023-05-19T04:52:24.386Z,11.67
2023-05-19T04:54:53.282Z,11.70
2023-05-19T04:57:23.527Z,11.80
2023-05-19T04:59:52.347Z,11.93
2023-05-19T05:02:22.107Z,12.08
2023-05-19T05:04:50.851Z,11.94
2023-05-19T05:07:19.441Z,11.88
2023-05-19T05:09:48.293Z,11.98
2023-05-19T05:12:18.906Z,11.65
2023-05-19T05:14:51.662Z,11.62
2023-05-19T05:17:21.976Z,11.87
2023-05-19T05:19:51.399Z,12.11
2023-05-19T05:22:21.123Z,12.11
2023-05-19T05:24:50.937Z,12.52
2023-05-19T05:27:20.617Z,12.22
2023-05-19T05:29:51.649Z,12.16
2023-05-19T05:32:22.188Z,12.39
2023-05-19T05:34:51.437Z,12.58
2023-05-19T05:37:22.230Z,12.50
2023-05-19T05:39:50.789Z,12.64
2023-05-19T05:42:20.419Z,12.20
2023-05-19T05:44:51.170Z,12.47
2023-05-19T05:47:20.599Z,12.69
2023-05-19T05:49:51.149Z,12.49
2023-05-19T05:52:23.929Z,12.63
2023-05-19T05:54:53.795Z,12.31
2023-05-19T05:57:23.460Z,12.53
2023-05-19T05:59:53.714Z,12.02
2023-05-19T06:02:25.880Z,12.17
2023-05-19T06:05:14.300Z,12.37
2023-05-19T06:07:44.583Z,12.30
2023-05-19T06:10:16.976Z,12.59
2023-05-19T06:12:45.667Z,12.70
2023-05-19T06:15:15.621Z,12.59
2023-05-19T06:18:04.555Z,12.59
2023-05-19T06:20:33.332Z,12.83
2023-05-19T06:23:02.698Z,12.88
2023-05-19T06:25:31.847Z,13.20
2023-05-19T06:28:00.880Z,13.19
2023-05-19T06:30:31.816Z,13.55
2023-05-19T06:33:13.693Z,13.52
2023-05-19T06:35:42.870Z,13.37
2023-05-19T06:38:11.557Z,13.54
2023-05-19T06:40:40.116Z,13.40
2023-05-19T06:43:08.836Z,13.23
2023-05-19T06:45:59.034Z,13.01
2023-05-19T06:48:28.404Z,13.08
2023-05-19T06:50:58.271Z,12.99
2023-05-19T06:53:27.573Z,12.98
2023-05-19T06:55:59.836Z,13.29
2023-05-19T06:58:36.138Z,13.11
2023-05-19T07:01:08.694Z,13.01
2023-05-19T07:03:44.134Z,12.89
2023-05-19T07:06:14.038Z,12.85
2023-05-19T07:08:43.514Z,12.45
2023-05-19T07:11:14.438Z,12.82
2023-05-19T07:13:44.062Z,13.16
2023-05-19T07:16:15.395Z,14.00
2023-05-19T07:18:43.993Z,15.47
2023-05-19T07:21:13.279Z,15.80
2023-05-19T07:23:42.025Z,16.07
2023-05-19T07:26:10.519Z,16.08
2023-05-19T07:28:41.438Z,15.27
2023-05-19T07:31:11.268Z,15.00
2023-05-19T07:33:41.759Z,15.15
2023-05-19T07:36:10.390Z,15.05
2023-05-19T07:38:39.122Z,15.07
2023-05-19T07:41:07.685Z,16.02
2023-05-19T07:43:36.287Z,15.97
2023-05-19T07:46:05.129Z,16.46
2023-05-19T07:48:33.898Z,17.11
2023-05-19T07:51:03.604Z,17.22
2023-05-19T07:53:32.218Z,17.38
2023-05-19T07:56:00.775Z,17.68
2023-05-19T07:58:29.440Z,17.02
2023-05-19T08:00:59.066Z,15.96
2023-05-19T08:03:28.419Z,15.96
2023-05-19T08:05:57.295Z,17.21
2023-05-19T08:08:29.558Z,17.10
2023-05-19T08:10:58.698Z,16.37
2023-05-19T08:13:27.463Z,16.40
2023-05-19T08:15:59.901Z,16.29
2023-05-19T08:18:28.677Z,16.22
2023-05-19T08:20:57.235Z,15.55
2023-05-19T08:23:25.954Z,15.84
2023-05-19T08:25:55.858Z,16.17
2023-05-19T08:28:24.433Z,16.10
2023-05-19T08:30:55.951Z,16.04
2023-05-19T08:33:34.929Z,16.02
2023-05-19T08:36:11.159Z,16.48
2023-05-19T08:38:56.386Z,16.26
2023-05-19T08:41:29.876Z,16.62
2023-05-19T08:43:58.451Z,17.09
2023-05-19T08:46:31.823Z,17.21
2023-05-19T08:49:11.644Z,16.38
2023-05-19T08:51:48.614Z,15.95
2023-05-19T08:54:25.668Z,16.84
2023-05-19T08:56:57.690Z,16.91
2023-05-19T08:59:33.031Z,16.18
2023-05-19T09:04:48.725Z,16.42
2023-05-19T09:07:17.782Z,16.39
2023-05-19T09:09:46.839Z,16.76
2023-05-19T09:12:19.791Z,16.50
2023-05-19T09:14:48.465Z,16.49
2023-05-19T09:17:19.112Z,16.89
2023-05-19T09:19:49.420Z,16.71
2023-05-19T09:22:19.396Z,16.99
2023-05-19T09:24:49.001Z,17.49
2023-05-19T09:27:24.662Z,16.62
2023-05-19T09:29:53.219Z,16.27
2023-05-19T09:32:31.652Z,16.14
2023-05-19T09:35:04.558Z,16.91
2023-05-19T09:37:33.569Z,17.08
2023-05-19T09:40:01.813Z,17.78
2023-05-19T09:42:38.950Z,17.98
2023-05-19T09:45:09.519Z,18.42
2023-05-19T09:47:44.799Z,17.80
2023-05-19T09:50:18.122Z,17.20
2023-05-19T09:52:46.731Z,17.13
2023-05-19T09:55:23.279Z,17.59
2023-05-19T09:57:57.237Z,17.42
2023-05-19T10:00:27.981Z,17.76
2023-05-19T10:02:57.563Z,17.78
2023-05-19T10:05:26.355Z,17.96
2023-05-19T10:08:12.212Z,18.35
2023-05-19T10:10:44.068Z,18.26
2023-05-19T10:13:14.044Z,19.24
2023-05-19T10:15:58.085Z,19.67
2023-05-19T10:18:32.378Z,18.43
2023-05-19T10:21:24.393Z,17.91
2023-05-19T10:24:01.428Z,18.56
2023-05-19T10:26:43.728Z,19.17
2023-05-19T10:29:45.555Z,18.63
2023-05-19T10:32:47.298Z,18.50
2023-05-19T10:35:53.984Z,19.68
2023-05-19T10:39:08.385Z,19.32
2023-05-19T10:42:04.353Z,19.29
2023-05-19T10:45:11.797Z,19.00
2023-05-19T10:48:07.559Z,19.48
2023-05-19T10:50:39.323Z,19.74
2023-05-19T10:53:19.658Z,19.24
2023-05-19T10:55:59.218Z,19.44
2023-05-19T10:58:41.755Z,19.08
2023-05-19T11:01:15.148Z,19.70
2023-05-19T11:03:47.845Z,19.50
2023-05-19T11:06:28.432Z,19.80
2023-05-19T11:09:05.848Z,19.67
2023-05-19T11:11:47.220Z,19.68
2023-05-19T11:14:17.902Z,19.30
2023-05-19T11:16:59.739Z,19.69
2023-05-19T11:19:36.394Z,19.13
2023-05-19T11:22:15.807Z,19.65
2023-05-19T11:24:53.085Z,19.82
2023-05-19T11:27:34.206Z,19.85
2023-05-19T11:30:18.800Z,20.25
2023-05-19T11:32:54.916Z,20.49
2023-05-19T11:35:38.514Z,20.83
2023-05-19T11:38:16.539Z,20.96
2023-05-19T11:40:46.039Z,21.28
2023-05-19T11:43:14.776Z,20.60
2023-05-19T11:45:46.105Z,20.62
2023-05-19T11:48:17.843Z,20.36
2023-05-19T11:50:47.040Z,20.83
2023-05-19T11:53:23.477Z,19.62
2023-05-19T11:55:52.756Z,20.34
2023-05-19T11:58:28.041Z,19.72
2023-05-19T12:00:56.863Z,19.79
2023-05-19T12:03:29.968Z,21.05
2023-05-19T12:06:06.319Z,20.33
2023-05-19T12:08:41.003Z,20.16
2023-05-19T12:11:09.978Z,19.72
2023-05-19T12:13:41.346Z,20.03
2023-05-19T12:16:10.123Z,20.56
2023-05-19T12:18:40.538Z,20.81
2023-05-19T12:21:09.183Z,19.26
2023-05-19T12:23:37.872Z,19.45
2023-05-19T12:26:06.381Z,19.73
2023-05-19T12:28:34.944Z,19.89
2023-05-19T12:31:04.188Z,19.58
2023-05-19T12:33:36.167Z,20.01
2023-05-19T12:36:07.860Z,18.84
2023-05-19T12:38:37.635Z,19.30
2023-05-19T12:41:07.258Z,19.31
2023-05-19T12:43:39.622Z,19.97
2023-05-19T12:46:13.892Z,19.32
2023-05-19T12:48:43.147Z,19.00
2023-05-19T12:51:17.478Z,18.75
2023-05-19T12:53:47.555Z,19.22
2023-05-19T12:56:17.210Z,19.18
2023-05-19T12:58:46.192Z,19.24
2023-05-19T13:01:18.894Z,19.23
2023-05-19T13:03:47.808Z,19.32
2023-05-19T13:06:17.751Z,19.56
2023-05-19T13:08:48.606Z,19.79
2023-05-19T13:11:23.530Z,19.48
2023-05-19T13:13:55.376Z,19.50
2023-05-19T13:16:27.276Z,19.65
2023-05-19T13:19:01.484Z,19.88
2023-05-19T13:21:32.070Z,19.82
2023-05-19T13:24:00.942Z,19.41
2023-05-19T13:26:46.736Z,19.92
2023-05-19T13:29:15.770Z,20.17
2023-05-19T13:31:44.682Z,20.24
2023-05-19T13:34:17.365Z,20.09
2023-05-19T13:36:49.098Z,20.05
2023-05-19T13:39:20.703Z,20.02
2023-05-19T13:41:52.886Z,19.46
2023-05-19T13:44:21.937Z,19.34
2023-05-19T13:46:52.202Z,19.37
2023-05-19T13:49:23.550Z,19.47
2023-05-19T13:51:58.328Z,18.69
2023-05-19T13:54:27.168Z,18.99
2023-05-19T13:57:01.629Z,19.34
2023-05-19T13:59:33.370Z,19.25
2023-05-19T14:02:10.782Z,19.65
2023-05-19T14:04:41.466Z,19.39
2023-05-19T14:07:11.661Z,18.96
2023-05-19T14:09:40.297Z,19.01
2023-05-19T14:12:12.256Z,19.27
2023-05-19T14:14:40.938Z,19.16
2023-05-19T14:17:11.839Z,19.32
2023-05-19T14:19:41.004Z,19.34
2023-05-19T14:22:11.080Z,18.92
2023-05-19T14:24:39.696Z,19.46
2023-05-19T14:27:11.350Z,19.38
2023-05-19T14:29:42.622Z,19.32
2023-05-19T14:32:12.598Z,19.07
2023-05-19T14:34:48.772Z,18.92
2023-05-19T14:37:32.807Z,18.22
2023-05-19T14:40:04.874Z,18.24
2023-05-19T14:42:36.091Z,18.56
2023-05-19T14:45:13.872Z,18.72
2023-05-19T14:47:42.950Z,18.59
2023-05-19T14:50:14.334Z,18.74
2023-05-19T14:52:46.566Z,18.55
2023-05-19T14:55:20.292Z,18.55
2023-05-19T14:57:49.317Z,19.01
2023-05-19T15:00:18.373Z,19.36
2023-05-19T15:02:47.191Z,19.22
2023-05-19T15:05:17.258Z,19.00
2023-05-19T15:07:47.437Z,19.11
2023-05-19T15:10:16.623Z,19.39
2023-05-19T15:13:13.639Z,18.99
2023-05-19T15:15:42.445Z,18.87
2023-05-19T15:18:13.360Z,19.23
2023-05-19T15:20:42.685Z,19.24
2023-05-19T15:23:13.321Z,19.21
2023-05-19T15:26:06.982Z,19.27
2023-05-19T15:28:45.396Z,19.09
2023-05-19T15:31:14.520Z,19.33
2023-05-19T15:33:46.354Z,18.94
2023-05-19T15:39:41.260Z,18.96
2023-05-19T15:42:10.321Z,18.93
2023-05-19T15:48:36.755Z,18.92
2023-05-19T15:51:14.750Z,18.69
2023-05-19T15:53:47.852Z,18.39
2023-05-19T15:56:21.886Z,19.14
2023-05-19T15:58:51.100Z,19.12
2023-05-19T16:01:20.195Z,18.92
2023-05-19T16:03:49.264Z,18.79
2023-05-19T16:06:18.322Z,18.41
2023-05-19T16:08:47.243Z,18.34
2023-05-19T16:11:16.173Z,18.56
2023-05-19T16:13:48.750Z,18.42
2023-05-19T16:16:20.692Z,18.30
2023-05-19T16:18:53.786Z,18.19
2023-05-19T16:21:28.403Z,17.68
2023-05-19T16:24:00.237Z,17.49
2023-05-19T16:26:32.172Z,17.45
2023-05-19T16:29:04.708Z,17.68
2023-05-19T16:31:39.510Z,17.65
2023-05-19T16:34:08.291Z,17.46
2023-05-19T16:36:40.016Z,17.23
2023-05-19T16:39:08.713Z,17.42
2023-05-19T16:41:39.768Z,17.49
2023-05-19T16:44:16.935Z,17.12
2023-05-19T16:46:45.809Z,17.04
2023-05-19T16:49:17.337Z,17.03
2023-05-19T16:51:48.199Z,16.84
2023-05-19T16:54:24.969Z,16.60
2023-05-19T16:56:54.345Z,16.65
2023-05-19T16:59:24.408Z,16.66
2023-05-19T17:01:53.208Z,16.60
2023-05-19T17:04:24.220Z,16.29
2023-05-19T17:06:53.269Z,16.27
2023-05-19T17:09:25.374Z,16.28
2023-05-19T17:11:54.314Z,16.39
2023-05-19T17:14:24.348Z,16.46
2023-05-19T17:16:55.778Z,15.96
2023-05-19T17:19:26.154Z,16.03
2023-05-19T17:21:56.733Z,15.92
2023-05-19T17:24:25.594Z,15.98
2023-05-19T17:26:53.964Z,16.04
2023-05-19T17:29:24.905Z,15.78
2023-05-19T17:31:56.828Z,15.64
2023-05-19T17:34:26.373Z,15.62
2023-05-19T17:36:54.949Z,15.57
2023-05-19T17:39:43.353Z,15.55
2023-05-19T17:42:15.969Z,15.18
2023-05-19T17:44:50.086Z,15.33
2023-05-19T17:47:19.155Z,15.19
2023-05-19T17:49:48.022Z,15.17
2023-05-19T17:52:19.434Z,14.92
2023-05-19T17:54:48.637Z,14.91
2023-05-19T17:57:32.519Z,14.74
2023-05-19T18:00:08.402Z,14.63
2023-05-19T18:02:38.361Z,14.32
2023-05-19T18:05:08.529Z,14.57
2023-05-19T18:07:46.872Z,14.19
2023-05-19T18:10:20.518Z,14.23
2023-05-19T18:12:49.380Z,14.29
2023-05-19T18:15:24.232Z,14.16
2023-05-19T18:18:00.177Z,14.15
2023-05-19T18:20:49.111Z,14.28
2023-05-19T18:23:18.099Z,14.26
2023-05-19T18:25:51.965Z,13.96
2023-05-19T18:28:20.910Z,14.02
2023-05-19T18:30:59.354Z,14.03
2023-05-19T18:34:00.100Z,13.78
2023-05-19T18:36:32.649Z,13.63
2023-05-19T18:39:06.271Z,13.97
2023-05-19T18:41:37.595Z,13.87
2023-05-19T18:44:08.206Z,13.79
2023-05-19T18:46:40.027Z,13.80
2023-05-19T18:49:11.709Z,13.74
2023-05-19T18:51:45.404Z,13.58
2023-05-19T18:54:15.621Z,13.44
2023-05-19T18:56:46.829Z,13.62
2023-05-19T18:59:15.684Z,13.61
2023-05-19T19:01:47.768Z,13.53
2023-05-19T19:04:19.757Z,13.22
2023-05-19T19:06:49.261Z,13.16
2023-05-19T19:09:17.928Z,13.17
2023-05-19T19:11:46.610Z,13.00
2023-05-19T19:14:15.411Z,13.08
2023-05-19T19:16:44.180Z,12.89
2023-05-19T19:19:14.386Z,13.02
2023-05-19T19:21:43.278Z,12.78
2023-05-19T19:24:11.625Z,12.96
2023-05-19T19:26:40.412Z,12.92
2023-05-19T19:29:09.219Z,12.95
2023-05-19T19:31:38.676Z,12.88
2023-05-19T19:34:09.390Z,12.58
2023-05-19T19:36:39.526Z,12.67
2023-05-19T19:39:08.340Z,12.50
2023-05-19T19:41:37.028Z,12.68
2023-05-19T19:44:05.716Z,12.51
2023-05-19T19:46:34.361Z,12.50
2023-05-19T19:49:03.609Z,12.31
2023-05-19T19:51:34.652Z,12.28
2023-05-19T19:54:04.856Z,12.24
2023-05-19T19:56:36.306Z,12.08
2023-05-19T19:59:05.123Z,12.27
2023-05-19T20:01:38.507Z,12.01
2023-05-19T20:04:07.446Z,12.15
2023-05-19T20:06:37.224Z,12.09
2023-05-19T20:09:07.196Z,12.01
2023-05-19T20:11:39.185Z,11.86
2023-05-19T20:14:12.717Z,12.09
2023-05-19T20:16:41.872Z,11.88
2023-05-19T20:19:11.985Z,11.76
2023-05-19T20:21:41.732Z,11.90
2023-05-19T20:24:11.736Z,11.99
2023-05-19T20:26:40.394Z,11.84
2023-05-19T20:29:09.040Z,11.89
2023-05-19T20:31:37.704Z,11.87
2023-05-19T20:34:06.488Z,11.96
2023-05-19T20:36:35.349Z,11.67
2023-05-19T20:39:09.849Z,11.59
2023-05-19T20:41:40.336Z,11.46
2023-05-19T20:44:10.492Z,11.57
2023-05-19T20:46:42.493Z,11.43
2023-05-19T20:49:11.173Z,11.44
2023-05-19T20:51:41.876Z,11.43
2023-05-19T20:54:10.569Z,11.43
2023-05-19T20:56:40.676Z,11.38
2023-05-19T20:59:09.449Z,11.28
2023-05-19T21:01:38.097Z,11.46
2023-05-19T21:04:07.978Z,11.39
2023-05-19T21:06:36.732Z,11.41
2023-05-19T21:09:07.977Z,11.34
2023-05-19T21:11:36.637Z,11.31
2023-05-19T21:14:08.230Z,11.17
2023-05-19T21:16:38.973Z,11.08
2023-05-19T21:19:08.182Z,11.25
2023-05-19T21:21:38.492Z,11.20
2023-05-19T21:24:10.133Z,11.12
2023-05-19T21:26:41.789Z,11.28
2023-05-19T21:29:12.360Z,11.17
2023-05-19T21:31:41.132Z,11.14
2023-05-19T21:34:09.649Z,11.20
2023-05-19T21:36:38.396Z,11.26
2023-05-19T21:39:07.123Z,11.22
2023-05-19T21:41:35.765Z,11.52
2023-05-19T21:44:04.498Z,11.54
2023-05-19T21:46:34.251Z,11.63
2023-05-19T21:49:02.811Z,11.74
2023-05-19T21:51:31.828Z,11.80
2023-05-19T21:54:00.461Z,11.69
2023-05-19T21:56:29.065Z,11.66
2023-05-19T21:58:57.810Z,11.59
2023-05-19T22:01:26.719Z,11.59
2023-05-19T22:03:57.093Z,11.55
2023-05-19T22:06:26.385Z,11.68
2023-05-19T22:08:54.763Z,11.70
2023-05-19T22:11:23.371Z,11.64
2023-05-19T22:13:54.816Z,11.64
2023-05-19T22:16:23.578Z,11.70
2023-05-19T22:18:52.226Z,11.71
2023-05-19T22:21:22.427Z,11.65
2023-05-19T22:23:51.031Z,11.63
2023-05-19T22:26:19.613Z,11.65
2023-05-19T22:28:48.287Z,11.72
2023-05-19T22:31:16.972Z,11.64
2023-05-19T22:33:45.806Z,11.58
2023-05-19T22:36:16.267Z,11.56
2023-05-19T22:38:46.297Z,11.54
2023-05-19T22:41:14.989Z,11.54
2023-05-19T22:43:43.545Z,11.58
2023-05-19T22:46:12.181Z,11.57
2023-05-19T22:48:40.853Z,11.64
2023-05-19T22:51:12.752Z,11.52
2023-05-19T22:53:42.643Z,11.61
2023-05-19T22:56:14.939Z,11.59
2023-05-19T22:58:43.539Z,11.64
2023-05-19T23:01:12.172Z,11.58
2023-05-19T23:03:40.886Z,11.62
2023-05-19T23:06:09.586Z,11.67
2023-05-19T23:08:38.167Z,11.63
2023-05-19T23:11:06.773Z,11.50
2023-05-19T23:13:36.794Z,11.57
2023-05-19T23:16:07.699Z,11.72
2023-05-19T23:18:36.594Z,11.61
2023-05-19T23:21:05.250Z,11.68
2023-05-19T23:23:35.984Z,11.77
2023-05-19T23:26:04.497Z,11.53
2023-05-19T23:28:33.144Z,11.65
2023-05-19T23:31:03.414Z,11.61
2023-05-19T23:33:31.979Z,11.57
2023-05-19T23:36:01.405Z,11.52
2023-05-19T23:38:32.440Z,11.59
2023-05-19T23:41:01.134Z,11.50
2023-05-19T23:43:29.790Z,11.57
2023-05-19T23:45:58.407Z,11.59
2023-05-19T23:48:29.189Z,11.43
2023-05-19T23:50:58.832Z,11.45
2023-05-19T23:53:30.245Z,11.41
2023-05-19T23:55:59.054Z,11.42
2023-05-19T23:58:27.715Z,11.38
